sensor_id;sensor_type;location;lat;lon;timestamp;temperature;humidity
13458;DHT22;6801;53.018;11.560;2023-03-01T00:00:03;0.90;74.90
13458;DHT22;6801;53.018;11.560;2023-03-01T00:02:37;0.90;74.90
13458;DHT22;6801;53.018;11.560;2023-03-01T00:05:05;0.90;74.90
13458;DHT22;6801;53.018;11.560;2023-03-01T00:07:33;0.80;75.00
13458;DHT22;6801;53.018;11.560;2023-03-01T00:10:00;0.80;74.90
13458;DHT22;6801;53.018;11.560;2023-03-01T00:12:27;0.80;75.00
13458;DHT22;6801;53.018;11.560;2023-03-01T00:14:54;0.70;75.00
13458;DHT22;6801;53.018;11.560;2023-03-01T00:17:22;0.70;75.10
13458;DHT22;6801;53.018;11.560;2023-03-01T00:19:49;0.70;75.00
13458;DHT22;6801;53.018;11.560;2023-03-01T00:22:16;0.70;74.90
13458;DHT22;6801;53.018;11.560;2023-03-01T00:24:43;0.60;75.00
13458;DHT22;6801;53.018;11.560;2023-03-01T00:27:10;0.60;75.10
13458;DHT22;6801;53.018;11.560;2023-03-01T00:29:37;0.60;75.10
13458;DHT22;6801;53.018;11.560;2023-03-01T00:32:05;0.60;75.20
13458;DHT22;6801;53.018;11.560;2023-03-01T00:34:33;0.50;75.30
13458;DHT22;6801;53.018;11.560;2023-03-01T00:37:00;0.50;75.30
13458;DHT22;6801;53.018;11.560;2023-03-01T00:39:31;0.50;75.30
13458;DHT22;6801;53.018;11.560;2023-03-01T00:41:59;0.50;75.30
13458;DHT22;6801;53.018;11.560;2023-03-01T00:44:26;0.40;75.30
13458;DHT22;6801;53.018;11.560;2023-03-01T00:46:54;0.40;75.30
13458;DHT22;6801;53.018;11.560;2023-03-01T00:49:21;0.40;75.40
13458;DHT22;6801;53.018;11.560;2023-03-01T00:51:51;0.30;75.50
13458;DHT22;6801;53.018;11.560;2023-03-01T00:54:18;0.30;75.50
13458;DHT22;6801;53.018;11.560;2023-03-01T00:56:46;0.30;75.50
13458;DHT22;6801;53.018;11.560;2023-03-01T00:59:14;0.30;75.50
13458;DHT22;6801;53.018;11.560;2023-03-01T01:01:41;0.20;75.40
13458;DHT22;6801;53.018;11.560;2023-03-01T01:04:10;0.20;75.50
13458;DHT22;6801;53.018;11.560;2023-03-01T01:06:39;0.20;75.40
13458;DHT22;6801;53.018;11.560;2023-03-01T01:09:11;0.20;75.40
13458;DHT22;6801;53.018;11.560;2023-03-01T01:11:43;0.10;75.50
13458;DHT22;6801;53.018;11.560;2023-03-01T01:14:10;0.10;75.50
13458;DHT22;6801;53.018;11.560;2023-03-01T01:16:37;0.10;75.60
13458;DHT22;6801;53.018;11.560;2023-03-01T01:19:04;0.00;75.70
13458;DHT22;6801;53.018;11.560;2023-03-01T01:21:32;0.00;75.70
13458;DHT22;6801;53.018;11.560;2023-03-01T01:23:59;0.00;75.70
13458;DHT22;6801;53.018;11.560;2023-03-01T01:26:29;0.00;75.80
13458;DHT22;6801;53.018;11.560;2023-03-01T01:28:56;0.00;75.80
13458;DHT22;6801;53.018;11.560;2023-03-01T01:31:24;0.00;75.80
13458;DHT22;6801;53.018;11.560;2023-03-01T01:33:52;0.00;75.80
13458;DHT22;6801;53.018;11.560;2023-03-01T01:36:19;0.00;75.80
13458;DHT22;6801;53.018;11.560;2023-03-01T01:38:47;0.00;75.80
13458;DHT22;6801;53.018;11.560;2023-03-01T01:41:15;-3276.70;75.80
13458;DHT22;6801;53.018;11.560;2023-03-01T01:43:45;-3276.70;75.80
13458;DHT22;6801;53.018;11.560;2023-03-01T01:46:19;-3276.70;75.80
13458;DHT22;6801;53.018;11.560;2023-03-01T01:48:50;-3276.70;75.80
13458;DHT22;6801;53.018;11.560;2023-03-01T01:51:23;-3276.70;75.80
13458;DHT22;6801;53.018;11.560;2023-03-01T01:53:54;-3276.60;75.90
13458;DHT22;6801;53.018;11.560;2023-03-01T01:56:23;-3276.60;75.90
13458;DHT22;6801;53.018;11.560;2023-03-01T01:58:52;-3276.60;75.90
13458;DHT22;6801;53.018;11.560;2023-03-01T02:01:20;-3276.50;75.90
13458;DHT22;6801;53.018;11.560;2023-03-01T02:03:48;-3276.50;75.90
13458;DHT22;6801;53.018;11.560;2023-03-01T02:06:20;-3276.50;75.80
13458;DHT22;6801;53.018;11.560;2023-03-01T02:08:49;-3276.50;75.80
13458;DHT22;6801;53.018;11.560;2023-03-01T02:11:19;-3276.50;75.90
13458;DHT22;6801;53.018;11.560;2023-03-01T02:13:47;-3276.50;75.90
13458;DHT22;6801;53.018;11.560;2023-03-01T02:16:17;-3276.40;76.00
13458;DHT22;6801;53.018;11.560;2023-03-01T02:18:44;-3276.40;76.00
13458;DHT22;6801;53.018;11.560;2023-03-01T02:21:21;-3276.40;75.90
13458;DHT22;6801;53.018;11.560;2023-03-01T02:23:53;-3276.40;75.90
13458;DHT22;6801;53.018;11.560;2023-03-01T02:26:27;-3276.40;76.00
13458;DHT22;6801;53.018;11.560;2023-03-01T02:29:00;-3276.30;76.00
13458;DHT22;6801;53.018;11.560;2023-03-01T02:31:27;-3276.30;76.00
13458;DHT22;6801;53.018;11.560;2023-03-01T02:34:12;-3276.30;76.00
13458;DHT22;6801;53.018;11.560;2023-03-01T02:36:42;-3276.20;76.00
13458;DHT22;6801;53.018;11.560;2023-03-01T02:39:14;-3276.20;76.00
13458;DHT22;6801;53.018;11.560;2023-03-01T02:41:49;-3276.20;76.00
13458;DHT22;6801;53.018;11.560;2023-03-01T02:44:18;-3276.20;76.00
13458;DHT22;6801;53.018;11.560;2023-03-01T02:46:47;-3276.20;76.00
13458;DHT22;6801;53.018;11.560;2023-03-01T02:49:24;-3276.10;75.90
13458;DHT22;6801;53.018;11.560;2023-03-01T02:52:08;-3276.10;76.00
13458;DHT22;6801;53.018;11.560;2023-03-01T02:54:41;-3276.10;76.10
13458;DHT22;6801;53.018;11.560;2023-03-01T02:57:09;-3276.10;76.00
13458;DHT22;6801;53.018;11.560;2023-03-01T02:59:39;-3276.10;76.00
13458;DHT22;6801;53.018;11.560;2023-03-01T03:02:18;-3276.00;76.00
13458;DHT22;6801;53.018;11.560;2023-03-01T03:04:46;-3276.00;76.00
13458;DHT22;6801;53.018;11.560;2023-03-01T03:07:13;-3276.00;76.00
13458;DHT22;6801;53.018;11.560;2023-03-01T03:09:40;-3276.00;76.10
13458;DHT22;6801;53.018;11.560;2023-03-01T03:12:07;-3276.00;76.00
13458;DHT22;6801;53.018;11.560;2023-03-01T03:14:34;-3276.00;76.00
13458;DHT22;6801;53.018;11.560;2023-03-01T03:17:03;-3275.90;76.10
13458;DHT22;6801;53.018;11.560;2023-03-01T03:19:32;-3275.90;76.00
13458;DHT22;6801;53.018;11.560;2023-03-01T03:21:59;-3275.90;76.00
13458;DHT22;6801;53.018;11.560;2023-03-01T03:24:26;-3275.90;76.10
13458;DHT22;6801;53.018;11.560;2023-03-01T03:26:54;-3275.90;76.10
13458;DHT22;6801;53.018;11.560;2023-03-01T03:29:21;-3275.90;76.10
13458;DHT22;6801;53.018;11.560;2023-03-01T03:31:48;-3275.90;76.10
13458;DHT22;6801;53.018;11.560;2023-03-01T03:34:16;-3275.80;76.10
13458;DHT22;6801;53.018;11.560;2023-03-01T03:36:43;-3275.80;76.10
13458;DHT22;6801;53.018;11.560;2023-03-01T03:39:10;-3275.80;76.10
13458;DHT22;6801;53.018;11.560;2023-03-01T03:41:37;-3275.80;76.10
13458;DHT22;6801;53.018;11.560;2023-03-01T03:44:04;-3275.80;76.10
13458;DHT22;6801;53.018;11.560;2023-03-01T03:46:31;-3275.80;76.10
13458;DHT22;6801;53.018;11.560;2023-03-01T03:48:58;-3275.80;76.00
13458;DHT22;6801;53.018;11.560;2023-03-01T03:51:26;-3275.70;76.10
13458;DHT22;6801;53.018;11.560;2023-03-01T03:53:53;-3275.70;76.10
13458;DHT22;6801;53.018;11.560;2023-03-01T03:56:20;-3275.70;76.10
13458;DHT22;6801;53.018;11.560;2023-03-01T03:58:51;-3275.70;76.10
13458;DHT22;6801;53.018;11.560;2023-03-01T04:01:18;-3275.70;76.10
13458;DHT22;6801;53.018;11.560;2023-03-01T04:03:45;-3275.70;76.10
13458;DHT22;6801;53.018;11.560;2023-03-01T04:06:13;-3275.60;76.10
13458;DHT22;6801;53.018;11.560;2023-03-01T04:08:41;-3275.70;76.10
13458;DHT22;6801;53.018;11.560;2023-03-01T04:11:08;-3275.60;76.10
13458;DHT22;6801;53.018;11.560;2023-03-01T04:13:55;-3275.60;76.10
13458;DHT22;6801;53.018;11.560;2023-03-01T04:16:22;-3275.60;76.10
13458;DHT22;6801;53.018;11.560;2023-03-01T04:18:49;-3275.70;76.10
13458;DHT22;6801;53.018;11.560;2023-03-01T04:21:17;-3275.60;76.10
13458;DHT22;6801;53.018;11.560;2023-03-01T04:23:47;-3275.60;76.10
13458;DHT22;6801;53.018;11.560;2023-03-01T04:26:18;-3275.60;76.10
13458;DHT22;6801;53.018;11.560;2023-03-01T04:28:45;-3275.50;76.10
13458;DHT22;6801;53.018;11.560;2023-03-01T04:31:15;-3275.50;76.10
13458;DHT22;6801;53.018;11.560;2023-03-01T04:33:44;-3275.50;76.10
13458;DHT22;6801;53.018;11.560;2023-03-01T04:36:12;-3275.50;76.10
13458;DHT22;6801;53.018;11.560;2023-03-01T04:38:40;-3275.50;76.10
13458;DHT22;6801;53.018;11.560;2023-03-01T04:41:10;-3275.40;76.10
13458;DHT22;6801;53.018;11.560;2023-03-01T04:43:38;-3275.40;76.10
13458;DHT22;6801;53.018;11.560;2023-03-01T04:46:06;-3275.40;76.20
13458;DHT22;6801;53.018;11.560;2023-03-01T04:48:35;-3275.40;76.10
13458;DHT22;6801;53.018;11.560;2023-03-01T04:51:03;-3275.40;76.10
13458;DHT22;6801;53.018;11.560;2023-03-01T04:53:32;-3275.40;76.00
13458;DHT22;6801;53.018;11.560;2023-03-01T04:55:59;-3275.40;76.10
13458;DHT22;6801;53.018;11.560;2023-03-01T04:58:27;-3275.40;76.10
13458;DHT22;6801;53.018;11.560;2023-03-01T05:00:55;-3275.40;76.10
13458;DHT22;6801;53.018;11.560;2023-03-01T05:03:22;-3275.30;76.00
13458;DHT22;6801;53.018;11.560;2023-03-01T05:05:51;-3275.40;76.10
13458;DHT22;6801;53.018;11.560;2023-03-01T05:08:19;-3275.30;76.00
13458;DHT22;6801;53.018;11.560;2023-03-01T05:10:48;-3275.30;75.90
13458;DHT22;6801;53.018;11.560;2023-03-01T05:13:16;-3275.30;75.90
13458;DHT22;6801;53.018;11.560;2023-03-01T05:15:48;-3275.30;76.00
13458;DHT22;6801;53.018;11.560;2023-03-01T05:18:15;-3275.30;76.00
13458;DHT22;6801;53.018;11.560;2023-03-01T05:20:42;-3275.20;76.10
13458;DHT22;6801;53.018;11.560;2023-03-01T05:23:10;-3275.20;76.10
13458;DHT22;6801;53.018;11.560;2023-03-01T05:25:37;-3275.20;76.10
13458;DHT22;6801;53.018;11.560;2023-03-01T05:28:06;-3275.20;76.10
13458;DHT22;6801;53.018;11.560;2023-03-01T05:30:35;-3275.20;76.10
13458;DHT22;6801;53.018;11.560;2023-03-01T05:33:06;-3275.20;76.10
13458;DHT22;6801;53.018;11.560;2023-03-01T05:35:39;-3275.20;76.10
13458;DHT22;6801;53.018;11.560;2023-03-01T05:38:06;-3275.20;76.10
13458;DHT22;6801;53.018;11.560;2023-03-01T05:40:33;-3275.20;75.90
13458;DHT22;6801;53.018;11.560;2023-03-01T05:43:00;-3275.20;75.90
13458;DHT22;6801;53.018;11.560;2023-03-01T05:45:31;-3275.20;75.80
13458;DHT22;6801;53.018;11.560;2023-03-01T05:47:59;-3275.10;75.90
13458;DHT22;6801;53.018;11.560;2023-03-01T05:50:29;-3275.10;75.90
13458;DHT22;6801;53.018;11.560;2023-03-01T05:53:01;-3275.10;75.90
13458;DHT22;6801;53.018;11.560;2023-03-01T05:55:28;-3275.10;76.10
13458;DHT22;6801;53.018;11.560;2023-03-01T05:57:58;-3275.10;76.00
13458;DHT22;6801;53.018;11.560;2023-03-01T06:00:25;-3275.00;76.10
13458;DHT22;6801;53.018;11.560;2023-03-01T06:02:53;-3275.00;76.20
13458;DHT22;6801;53.018;11.560;2023-03-01T06:05:20;-3275.00;76.30
13458;DHT22;6801;53.018;11.560;2023-03-01T06:07:49;-3275.00;76.20
13458;DHT22;6801;53.018;11.560;2023-03-01T06:10:16;-3275.10;76.30
13458;DHT22;6801;53.018;11.560;2023-03-01T06:12:44;-3275.00;76.20
13458;DHT22;6801;53.018;11.560;2023-03-01T06:15:11;-3275.00;76.20
13458;DHT22;6801;53.018;11.560;2023-03-01T06:17:39;-3275.00;76.00
13458;DHT22;6801;53.018;11.560;2023-03-01T06:20:09;-3275.00;76.10
13458;DHT22;6801;53.018;11.560;2023-03-01T06:22:37;-3275.00;76.10
13458;DHT22;6801;53.018;11.560;2023-03-01T06:25:06;-3275.00;76.00
13458;DHT22;6801;53.018;11.560;2023-03-01T06:27:34;-3275.00;76.00
13458;DHT22;6801;53.018;11.560;2023-03-01T06:30:00;-3275.00;76.10
13458;DHT22;6801;53.018;11.560;2023-03-01T06:32:28;-3275.00;76.00
13458;DHT22;6801;53.018;11.560;2023-03-01T06:34:55;-3275.00;76.10
13458;DHT22;6801;53.018;11.560;2023-03-01T06:37:24;-3275.10;76.10
13458;DHT22;6801;53.018;11.560;2023-03-01T06:39:51;-3275.00;76.00
13458;DHT22;6801;53.018;11.560;2023-03-01T06:42:19;-3275.10;76.00
13458;DHT22;6801;53.018;11.560;2023-03-01T06:44:46;-3275.10;76.00
13458;DHT22;6801;53.018;11.560;2023-03-01T06:47:13;-3275.10;76.00
13458;DHT22;6801;53.018;11.560;2023-03-01T06:49:40;-3275.10;75.90
13458;DHT22;6801;53.018;11.560;2023-03-01T06:52:07;-3275.20;75.90
13458;DHT22;6801;53.018;11.560;2023-03-01T06:54:34;-3275.20;75.90
13458;DHT22;6801;53.018;11.560;2023-03-01T06:57:01;-3275.20;75.90
13458;DHT22;6801;53.018;11.560;2023-03-01T06:59:29;-3275.30;75.90
13458;DHT22;6801;53.018;11.560;2023-03-01T07:01:57;-3275.20;75.90
13458;DHT22;6801;53.018;11.560;2023-03-01T07:04:24;-3275.30;75.90
13458;DHT22;6801;53.018;11.560;2023-03-01T07:06:50;-3275.30;75.90
13458;DHT22;6801;53.018;11.560;2023-03-01T07:09:20;-3275.30;75.90
13458;DHT22;6801;53.018;11.560;2023-03-01T07:11:48;-3275.30;75.80
13458;DHT22;6801;53.018;11.560;2023-03-01T07:14:14;-3275.40;75.90
13458;DHT22;6801;53.018;11.560;2023-03-01T07:16:43;-3275.40;75.90
13458;DHT22;6801;53.018;11.560;2023-03-01T07:19:10;-3275.40;75.90
13458;DHT22;6801;53.018;11.560;2023-03-01T07:21:37;-3275.40;75.80
13458;DHT22;6801;53.018;11.560;2023-03-01T07:24:05;-3275.50;75.80
13458;DHT22;6801;53.018;11.560;2023-03-01T07:26:32;-3275.50;75.80
13458;DHT22;6801;53.018;11.560;2023-03-01T07:28:59;-3275.50;75.80
13458;DHT22;6801;53.018;11.560;2023-03-01T07:31:27;-3275.50;75.90
13458;DHT22;6801;53.018;11.560;2023-03-01T07:33:55;-3275.60;75.90
13458;DHT22;6801;53.018;11.560;2023-03-01T07:36:24;-3275.60;76.00
13458;DHT22;6801;53.018;11.560;2023-03-01T07:38:51;-3275.70;76.00
13458;DHT22;6801;53.018;11.560;2023-03-01T07:41:18;-3275.70;76.00
13458;DHT22;6801;53.018;11.560;2023-03-01T07:43:45;-3275.70;76.00
13458;DHT22;6801;53.018;11.560;2023-03-01T07:46:13;-3275.80;76.10
13458;DHT22;6801;53.018;11.560;2023-03-01T07:48:40;-3275.80;76.10
13458;DHT22;6801;53.018;11.560;2023-03-01T07:51:09;-3275.90;76.20
13458;DHT22;6801;53.018;11.560;2023-03-01T07:53:37;-3275.90;76.20
13458;DHT22;6801;53.018;11.560;2023-03-01T07:56:06;-3276.00;76.30
13458;DHT22;6801;53.018;11.560;2023-03-01T07:58:34;-3276.00;76.30
13458;DHT22;6801;53.018;11.560;2023-03-01T08:01:02;-3276.10;76.30
13458;DHT22;6801;53.018;11.560;2023-03-01T08:03:29;-3276.10;76.30
13458;DHT22;6801;53.018;11.560;2023-03-01T08:05:56;-3276.20;76.40
13458;DHT22;6801;53.018;11.560;2023-03-01T08:08:24;-3276.20;76.50
13458;DHT22;6801;53.018;11.560;2023-03-01T08:10:51;-3276.30;76.60
13458;DHT22;6801;53.018;11.560;2023-03-01T08:13:18;-3276.40;76.60
13458;DHT22;6801;53.018;11.560;2023-03-01T08:15:48;-3276.40;76.70
13458;DHT22;6801;53.018;11.560;2023-03-01T08:18:15;-3276.50;76.70
13458;DHT22;6801;53.018;11.560;2023-03-01T08:20:42;-3276.50;76.60
13458;DHT22;6801;53.018;11.560;2023-03-01T08:23:09;-3276.60;76.60
13458;DHT22;6801;53.018;11.560;2023-03-01T08:25:38;-3276.70;76.70
13458;DHT22;6801;53.018;11.560;2023-03-01T08:28:05;-3276.70;76.70
13458;DHT22;6801;53.018;11.560;2023-03-01T08:30:34;0.00;76.70
13458;DHT22;6801;53.018;11.560;2023-03-01T08:33:01;0.00;76.70
13458;DHT22;6801;53.018;11.560;2023-03-01T08:35:28;0.00;76.70
13458;DHT22;6801;53.018;11.560;2023-03-01T08:37:55;0.10;76.60
13458;DHT22;6801;53.018;11.560;2023-03-01T08:40:22;0.20;76.60
13458;DHT22;6801;53.018;11.560;2023-03-01T08:42:51;0.30;76.60
13458;DHT22;6801;53.018;11.560;2023-03-01T08:45:17;0.30;76.60
13458;DHT22;6801;53.018;11.560;2023-03-01T08:47:44;0.40;76.60
13458;DHT22;6801;53.018;11.560;2023-03-01T08:50:11;0.50;76.60
13458;DHT22;6801;53.018;11.560;2023-03-01T08:52:38;0.60;76.50
13458;DHT22;6801;53.018;11.560;2023-03-01T08:55:07;0.70;76.50
13458;DHT22;6801;53.018;11.560;2023-03-01T08:57:34;0.80;76.40
13458;DHT22;6801;53.018;11.560;2023-03-01T09:00:03;0.80;76.40
13458;DHT22;6801;53.018;11.560;2023-03-01T09:02:34;0.90;76.30
13458;DHT22;6801;53.018;11.560;2023-03-01T09:05:01;1.00;76.20
13458;DHT22;6801;53.018;11.560;2023-03-01T09:07:28;1.10;76.00
13458;DHT22;6801;53.018;11.560;2023-03-01T09:09:55;1.20;76.00
13458;DHT22;6801;53.018;11.560;2023-03-01T09:12:22;1.30;75.90
13458;DHT22;6801;53.018;11.560;2023-03-01T09:14:50;1.40;75.90
13458;DHT22;6801;53.018;11.560;2023-03-01T09:17:18;1.50;75.80
13458;DHT22;6801;53.018;11.560;2023-03-01T09:19:47;1.60;75.70
13458;DHT22;6801;53.018;11.560;2023-03-01T09:22:15;1.60;75.60
13458;DHT22;6801;53.018;11.560;2023-03-01T09:24:42;1.70;75.50
13458;DHT22;6801;53.018;11.560;2023-03-01T09:27:09;1.80;75.40
13458;DHT22;6801;53.018;11.560;2023-03-01T09:29:37;1.90;75.30
13458;DHT22;6801;53.018;11.560;2023-03-01T09:32:04;2.00;75.30
13458;DHT22;6801;53.018;11.560;2023-03-01T09:34:32;2.10;75.20
13458;DHT22;6801;53.018;11.560;2023-03-01T09:37:19;2.10;75.20
13458;DHT22;6801;53.018;11.560;2023-03-01T09:39:46;2.30;75.10
13458;DHT22;6801;53.018;11.560;2023-03-01T09:42:13;2.30;75.00
13458;DHT22;6801;53.018;11.560;2023-03-01T09:44:46;2.40;74.90
13458;DHT22;6801;53.018;11.560;2023-03-01T09:47:18;2.50;74.90
13458;DHT22;6801;53.018;11.560;2023-03-01T09:49:57;2.50;74.80
13458;DHT22;6801;53.018;11.560;2023-03-01T09:52:31;2.60;74.80
13458;DHT22;6801;53.018;11.560;2023-03-01T09:54:59;2.70;74.80
13458;DHT22;6801;53.018;11.560;2023-03-01T09:57:30;2.80;74.80
13458;DHT22;6801;53.018;11.560;2023-03-01T10:00:07;2.80;74.70
13458;DHT22;6801;53.018;11.560;2023-03-01T10:02:41;2.90;74.70
13458;DHT22;6801;53.018;11.560;2023-03-01T10:05:27;3.10;74.70
13458;DHT22;6801;53.018;11.560;2023-03-01T10:08:06;3.20;74.70
13458;DHT22;6801;53.018;11.560;2023-03-01T10:10:44;3.30;74.60
13458;DHT22;6801;53.018;11.560;2023-03-01T10:13:16;3.30;74.60
13458;DHT22;6801;53.018;11.560;2023-03-01T10:15:47;3.40;74.60
13458;DHT22;6801;53.018;11.560;2023-03-01T10:18:18;3.50;74.60
13458;DHT22;6801;53.018;11.560;2023-03-01T10:20:52;3.60;74.60
13458;DHT22;6801;53.018;11.560;2023-03-01T10:23:19;3.70;74.50
13458;DHT22;6801;53.018;11.560;2023-03-01T10:25:56;3.70;74.50
13458;DHT22;6801;53.018;11.560;2023-03-01T10:28:31;3.80;74.40
13458;DHT22;6801;53.018;11.560;2023-03-01T10:31:04;4.00;74.50
13458;DHT22;6801;53.018;11.560;2023-03-01T10:33:33;4.00;74.50
13458;DHT22;6801;53.018;11.560;2023-03-01T10:36:04;4.10;74.30
13458;DHT22;6801;53.018;11.560;2023-03-01T10:38:47;4.10;74.30
13458;DHT22;6801;53.018;11.560;2023-03-01T10:41:14;4.20;74.30
13458;DHT22;6801;53.018;11.560;2023-03-01T10:43:45;4.30;74.20
13458;DHT22;6801;53.018;11.560;2023-03-01T10:46:26;4.30;74.20
13458;DHT22;6801;53.018;11.560;2023-03-01T10:49:14;4.40;74.30
13458;DHT22;6801;53.018;11.560;2023-03-01T10:51:44;4.40;74.40
13458;DHT22;6801;53.018;11.560;2023-03-01T10:54:20;4.60;74.20
13458;DHT22;6801;53.018;11.560;2023-03-01T10:56:49;4.70;73.80
13458;DHT22;6801;53.018;11.560;2023-03-01T10:59:26;4.70;73.80
13458;DHT22;6801;53.018;11.560;2023-03-01T11:02:16;4.80;74.00
13458;DHT22;6801;53.018;11.560;2023-03-01T11:05:00;4.90;74.00
13458;DHT22;6801;53.018;11.560;2023-03-01T11:07:28;5.00;74.10
13458;DHT22;6801;53.018;11.560;2023-03-01T11:09:56;5.10;73.90
13458;DHT22;6801;53.018;11.560;2023-03-01T11:12:24;5.10;74.00
13458;DHT22;6801;53.018;11.560;2023-03-01T11:14:53;5.20;74.10
13458;DHT22;6801;53.018;11.560;2023-03-01T11:17:24;5.30;74.10
13458;DHT22;6801;53.018;11.560;2023-03-01T11:20:02;5.30;74.10
13458;DHT22;6801;53.018;11.560;2023-03-01T11:22:34;5.40;74.20
13458;DHT22;6801;53.018;11.560;2023-03-01T11:25:02;5.50;74.20
13458;DHT22;6801;53.018;11.560;2023-03-01T11:27:32;5.60;74.30
13458;DHT22;6801;53.018;11.560;2023-03-01T11:30:02;5.60;74.40
13458;DHT22;6801;53.018;11.560;2023-03-01T11:32:38;5.70;74.40
13458;DHT22;6801;53.018;11.560;2023-03-01T11:35:13;5.80;74.30
13458;DHT22;6801;53.018;11.560;2023-03-01T11:37:49;5.90;74.00
13458;DHT22;6801;53.018;11.560;2023-03-01T11:40:24;6.00;73.80
13458;DHT22;6801;53.018;11.560;2023-03-01T11:43:02;6.10;73.70
13458;DHT22;6801;53.018;11.560;2023-03-01T11:45:40;6.20;73.70
13458;DHT22;6801;53.018;11.560;2023-03-01T11:48:24;6.30;73.80
13458;DHT22;6801;53.018;11.560;2023-03-01T11:50:55;6.30;74.00
13458;DHT22;6801;53.018;11.560;2023-03-01T11:53:36;6.40;74.10
13458;DHT22;6801;53.018;11.560;2023-03-01T11:56:16;6.50;74.00
13458;DHT22;6801;53.018;11.560;2023-03-01T11:59:06;6.60;73.80
13458;DHT22;6801;53.018;11.560;2023-03-01T12:01:45;6.70;73.60
13458;DHT22;6801;53.018;11.560;2023-03-01T12:04:33;6.80;73.60
13458;DHT22;6801;53.018;11.560;2023-03-01T12:07:08;6.80;73.80
13458;DHT22;6801;53.018;11.560;2023-03-01T12:09:53;6.90;74.00
13458;DHT22;6801;53.018;11.560;2023-03-01T12:12:28;7.00;74.10
13458;DHT22;6801;53.018;11.560;2023-03-01T12:18:05;7.10;74.00
13458;DHT22;6801;53.018;11.560;2023-03-01T12:20:42;7.30;73.80
13458;DHT22;6801;53.018;11.560;2023-03-01T12:23:33;7.30;73.30
13458;DHT22;6801;53.018;11.560;2023-03-01T12:26:07;7.40;73.50
13458;DHT22;6801;53.018;11.560;2023-03-01T12:28:58;7.50;73.70
13458;DHT22;6801;53.018;11.560;2023-03-01T12:31:47;7.50;74.00
13458;DHT22;6801;53.018;11.560;2023-03-01T12:37:23;7.60;73.90
13458;DHT22;6801;53.018;11.560;2023-03-01T12:40:09;7.70;74.00
13458;DHT22;6801;53.018;11.560;2023-03-01T12:42:48;7.80;73.80
13458;DHT22;6801;53.018;11.560;2023-03-01T12:45:35;7.80;74.00
13458;DHT22;6801;53.018;11.560;2023-03-01T12:48:18;7.90;74.20
13458;DHT22;6801;53.018;11.560;2023-03-01T12:50:52;8.00;74.30
13458;DHT22;6801;53.018;11.560;2023-03-01T12:53:23;8.00;74.10
13458;DHT22;6801;53.018;11.560;2023-03-01T12:55:52;8.10;73.70
13458;DHT22;6801;53.018;11.560;2023-03-01T12:58:26;8.20;73.50
13458;DHT22;6801;53.018;11.560;2023-03-01T13:01:04;8.30;73.30
13458;DHT22;6801;53.018;11.560;2023-03-01T13:03:42;8.40;73.50
13458;DHT22;6801;53.018;11.560;2023-03-01T13:06:21;8.40;73.60
13458;DHT22;6801;53.018;11.560;2023-03-01T13:08:54;8.50;73.70
13458;DHT22;6801;53.018;11.560;2023-03-01T13:11:23;8.60;73.70
13458;DHT22;6801;53.018;11.560;2023-03-01T13:13:52;8.60;73.00
13458;DHT22;6801;53.018;11.560;2023-03-01T13:19:10;8.80;72.70
13458;DHT22;6801;53.018;11.560;2023-03-01T13:21:39;8.80;73.00
13458;DHT22;6801;53.018;11.560;2023-03-01T13:24:24;8.90;72.50
13458;DHT22;6801;53.018;11.560;2023-03-01T13:27:22;9.00;71.30
13458;DHT22;6801;53.018;11.560;2023-03-01T13:29:57;9.10;70.90
13458;DHT22;6801;53.018;11.560;2023-03-01T13:32:25;9.10;71.50
13458;DHT22;6801;53.018;11.560;2023-03-01T13:35:00;9.20;71.40
13458;DHT22;6801;53.018;11.560;2023-03-01T13:37:34;9.30;71.00
13458;DHT22;6801;53.018;11.560;2023-03-01T13:42:52;9.30;70.80
13458;DHT22;6801;53.018;11.560;2023-03-01T13:45:24;9.30;71.60
13458;DHT22;6801;53.018;11.560;2023-03-01T13:47:56;9.40;72.10
13458;DHT22;6801;53.018;11.560;2023-03-01T13:50:25;9.40;72.30
13458;DHT22;6801;53.018;11.560;2023-03-01T13:52:56;9.40;72.10
13458;DHT22;6801;53.018;11.560;2023-03-01T13:55:28;9.50;72.00
13458;DHT22;6801;53.018;11.560;2023-03-01T13:57:58;9.50;72.00
13458;DHT22;6801;53.018;11.560;2023-03-01T14:00:30;9.60;71.90
13458;DHT22;6801;53.018;11.560;2023-03-01T14:03:03;9.70;72.20
13458;DHT22;6801;53.018;11.560;2023-03-01T14:05:30;9.70;72.30
13458;DHT22;6801;53.018;11.560;2023-03-01T14:07:57;9.70;72.30
13458;DHT22;6801;53.018;11.560;2023-03-01T14:10:30;9.80;72.30
13458;DHT22;6801;53.018;11.560;2023-03-01T14:13:06;9.90;72.50
13458;DHT22;6801;53.018;11.560;2023-03-01T14:15:41;9.90;71.80
13458;DHT22;6801;53.018;11.560;2023-03-01T14:18:12;10.00;71.60
13458;DHT22;6801;53.018;11.560;2023-03-01T14:20:42;10.00;71.80
13458;DHT22;6801;53.018;11.560;2023-03-01T14:23:13;10.00;71.80
13458;DHT22;6801;53.018;11.560;2023-03-01T14:25:47;10.10;71.40
13458;DHT22;6801;53.018;11.560;2023-03-01T14:28:17;10.10;71.30
13458;DHT22;6801;53.018;11.560;2023-03-01T14:30:47;10.20;71.30
13458;DHT22;6801;53.018;11.560;2023-03-01T14:33:23;10.20;70.80
13458;DHT22;6801;53.018;11.560;2023-03-01T14:35:56;10.30;70.80
13458;DHT22;6801;53.018;11.560;2023-03-01T14:38:28;10.30;71.10
13458;DHT22;6801;53.018;11.560;2023-03-01T14:40:59;10.30;71.20
13458;DHT22;6801;53.018;11.560;2023-03-01T14:43:27;10.30;71.00
13458;DHT22;6801;53.018;11.560;2023-03-01T14:45:57;10.40;70.60
13458;DHT22;6801;53.018;11.560;2023-03-01T14:48:24;10.40;70.30
13458;DHT22;6801;53.018;11.560;2023-03-01T14:50:52;10.50;70.20
13458;DHT22;6801;53.018;11.560;2023-03-01T14:53:21;10.40;70.30
13458;DHT22;6801;53.018;11.560;2023-03-01T14:55:52;10.50;70.50
13458;DHT22;6801;53.018;11.560;2023-03-01T14:58:22;10.40;70.40
13458;DHT22;6801;53.018;11.560;2023-03-01T15:00:52;10.50;70.50
13458;DHT22;6801;53.018;11.560;2023-03-01T15:03:26;10.50;70.80
13458;DHT22;6801;53.018;11.560;2023-03-01T15:05:54;10.50;71.00
13458;DHT22;6801;53.018;11.560;2023-03-01T15:08:24;10.50;70.10
13458;DHT22;6801;53.018;11.560;2023-03-01T15:11:00;10.60;69.80
13458;DHT22;6801;53.018;11.560;2023-03-01T15:13:31;10.60;70.10
13458;DHT22;6801;53.018;11.560;2023-03-01T15:16:05;10.60;70.30
13458;DHT22;6801;53.018;11.560;2023-03-01T15:18:35;10.60;70.70
13458;DHT22;6801;53.018;11.560;2023-03-01T15:21:07;10.60;70.50
13458;DHT22;6801;53.018;11.560;2023-03-01T15:23:37;10.60;68.60
13458;DHT22;6801;53.018;11.560;2023-03-01T15:26:04;10.60;68.00
13458;DHT22;6801;53.018;11.560;2023-03-01T15:28:33;10.60;67.90
13458;DHT22;6801;53.018;11.560;2023-03-01T15:31:03;10.60;68.90
13458;DHT22;6801;53.018;11.560;2023-03-01T15:33:39;10.60;69.20
13458;DHT22;6801;53.018;11.560;2023-03-01T15:36:32;10.50;69.60
13458;DHT22;6801;53.018;11.560;2023-03-01T15:39:00;10.50;69.00
13458;DHT22;6801;53.018;11.560;2023-03-01T15:41:30;10.50;69.80
13458;DHT22;6801;53.018;11.560;2023-03-01T15:43:58;10.50;69.50
13458;DHT22;6801;53.018;11.560;2023-03-01T15:46:28;10.60;69.30
13458;DHT22;6801;53.018;11.560;2023-03-01T15:48:59;10.60;69.00